createdAt,value
2023-05-22T00:00:08.913Z,9.00
2023-05-22T00:02:43.210Z,9.85
2023-05-22T00:05:15.028Z,9.23
2023-05-22T00:07:43.283Z,8.55
2023-05-22T00:10:11.331Z,9.70
2023-05-22T00:12:38.959Z,9.15
2023-05-22T00:15:07.890Z,10.13
2023-05-22T00:17:35.476Z,8.75
2023-05-22T00:20:06.849Z,9.13
2023-05-22T00:22:35.395Z,8.95
2023-05-22T00:25:07.169Z,9.32
2023-05-22T00:27:34.886Z,9.55
2023-05-22T00:30:02.660Z,9.38
2023-05-22T00:32:30.192Z,9.20
2023-05-22T00:34:57.943Z,8.85
2023-05-22T00:37:25.571Z,8.98
2023-05-22T00:39:53.209Z,9.63
2023-05-22T00:42:21.130Z,9.32
2023-05-22T00:44:48.926Z,9.73
2023-05-22T00:47:16.609Z,8.88
2023-05-22T00:49:45.285Z,9.02
2023-05-22T00:52:14.483Z,9.57
2023-05-22T00:54:43.202Z,10.25
2023-05-22T00:57:11.124Z,9.80
2023-05-22T00:59:38.737Z,10.32
2023-05-22T01:02:06.674Z,9.20
2023-05-22T01:04:35.238Z,9.43
2023-05-22T01:07:03.147Z,9.07
2023-05-22T01:09:31.095Z,10.18
2023-05-22T01:12:24.206Z,9.07
2023-05-22T01:15:13.564Z,9.20
2023-05-22T01:18:37.473Z,10.35
2023-05-22T01:21:38.954Z,9.68
2023-05-22T01:25:07.816Z,8.63
2023-05-22T01:28:21.829Z,9.27
2023-05-22T01:31:11.452Z,10.20
2023-05-22T01:34:00.931Z,9.50
2023-05-22T01:36:34.984Z,10.70
2023-05-22T01:39:06.159Z,8.93
2023-05-22T01:41:37.377Z,10.05
2023-05-22T01:44:04.992Z,10.07
2023-05-22T01:46:32.953Z,9.85
2023-05-22T01:49:00.728Z,9.23
2023-05-22T01:51:57.424Z,9.63
2023-05-22T01:54:50.252Z,9.25
2023-05-22T01:57:50.160Z,10.27
2023-05-22T02:00:21.334Z,9.13
2023-05-22T02:03:06.441Z,9.15
2023-05-22T02:05:38.613Z,10.30
2023-05-22T02:08:07.921Z,9.63
2023-05-22T02:10:37.111Z,9.32
2023-05-22T02:13:05.428Z,9.75
2023-05-22T02:15:33.672Z,9.80
2023-05-22T02:18:02.083Z,9.20
2023-05-22T02:20:30.223Z,9.02
2023-05-22T02:22:58.601Z,9.93
2023-05-22T02:25:26.198Z,9.95
2023-05-22T02:27:55.385Z,9.75
2023-05-22T02:30:23.095Z,9.77
2023-05-22T02:32:52.540Z,8.80
2023-05-22T02:35:20.471Z,9.68
2023-05-22T02:37:48.007Z,10.27
2023-05-22T02:40:15.980Z,9.27
2023-05-22T02:42:43.543Z,9.38
2023-05-22T02:45:11.835Z,10.15
2023-05-22T02:47:39.519Z,10.13
2023-05-22T02:50:07.932Z,9.60
2023-05-22T02:52:36.983Z,9.93
2023-05-22T02:55:05.350Z,9.68
2023-05-22T02:57:32.948Z,10.45
2023-05-22T03:00:01.458Z,10.32
2023-05-22T03:02:32.237Z,10.20
2023-05-22T03:04:59.935Z,10.15
2023-05-22T03:07:29.636Z,10.43
2023-05-22T03:09:57.878Z,9.60
2023-05-22T03:12:25.454Z,9.52
2023-05-22T03:14:53.031Z,10.35
2023-05-22T03:17:20.613Z,10.25
2023-05-22T03:19:48.549Z,9.23
2023-05-22T03:22:18.329Z,9.13
2023-05-22T03:24:46.040Z,9.68
2023-05-22T03:27:17.180Z,9.27
2023-05-22T03:29:46.941Z,9.60
2023-05-22T03:32:14.685Z,9.02
2023-05-22T03:34:43.416Z,9.60
2023-05-22T03:37:12.191Z,9.80
2023-05-22T03:39:39.844Z,9.90
2023-05-22T03:42:21.708Z,9.88
2023-05-22T03:44:49.982Z,9.85
2023-05-22T03:47:19.101Z,10.43
2023-05-22T03:49:46.977Z,9.82
2023-05-22T03:52:14.565Z,10.15
2023-05-22T03:54:42.124Z,10.70
2023-05-22T03:57:09.838Z,9.65
2023-05-22T03:59:37.408Z,9.52
2023-05-22T04:02:05.413Z,11.30
2023-05-22T04:04:38.499Z,10.18
2023-05-22T04:07:08.246Z,9.93
2023-05-22T04:09:36.469Z,9.82
2023-05-22T04:12:04.377Z,9.55
2023-05-22T04:14:32.725Z,11.10
2023-05-22T04:17:00.290Z,10.73
2023-05-22T04:19:29.935Z,11.27
2023-05-22T04:21:58.868Z,10.80
2023-05-22T04:24:27.548Z,10.93
2023-05-22T04:26:56.098Z,11.57
2023-05-22T04:29:24.275Z,10.88
2023-05-22T04:31:54.290Z,11.85
2023-05-22T04:34:22.264Z,12.63
2023-05-22T04:36:49.871Z,12.23
2023-05-22T04:39:18.584Z,12.45
2023-05-22T04:41:46.211Z,11.70
2023-05-22T04:44:14.299Z,12.38
2023-05-22T04:46:42.299Z,11.63
2023-05-22T04:49:10.379Z,12.25
2023-05-22T04:51:38.015Z,10.95
2023-05-22T04:54:06.461Z,10.90
2023-05-22T04:56:37.013Z,10.15
2023-05-22T04:59:08.729Z,11.38
2023-05-22T05:01:37.800Z,12.65
2023-05-22T05:04:05.881Z,12.05
2023-05-22T05:06:34.710Z,11.60
2023-05-22T05:09:07.011Z,12.25
2023-05-22T05:11:36.069Z,12.43
2023-05-22T05:14:04.395Z,11.25
2023-05-22T05:16:31.969Z,12.65
2023-05-22T05:18:59.577Z,12.20
2023-05-22T05:21:27.969Z,12.85
2023-05-22T05:23:57.645Z,11.52
2023-05-22T05:26:26.964Z,12.40
2023-05-22T05:28:56.431Z,11.25
2023-05-22T05:31:24.257Z,10.60
2023-05-22T05:34:07.620Z,10.25
2023-05-22T05:36:49.882Z,10.35
2023-05-22T05:39:18.476Z,10.18
2023-05-22T05:41:46.068Z,10.25
2023-05-22T05:44:13.736Z,11.13
2023-05-22T05:46:41.804Z,11.02
2023-05-22T05:49:11.180Z,11.10
2023-05-22T05:51:40.582Z,11.00
2023-05-22T05:54:08.855Z,12.18
2023-05-22T05:56:37.654Z,12.55
2023-05-22T05:59:05.740Z,11.20
2023-05-22T06:01:41.315Z,10.75
2023-05-22T06:04:15.300Z,12.45
2023-05-22T06:06:45.653Z,10.88
2023-05-22T06:09:16.341Z,11.27
2023-05-22T06:12:02.528Z,10.63
2023-05-22T06:14:30.631Z,11.27
2023-05-22T06:16:58.370Z,11.40
2023-05-22T06:19:26.030Z,11.55
2023-05-22T06:21:53.700Z,11.43
2023-05-22T06:24:22.182Z,10.98
2023-05-22T06:26:50.747Z,11.77
2023-05-22T06:29:18.823Z,10.45
2023-05-22T06:31:47.980Z,10.15
2023-05-22T06:34:19.210Z,11.07
2023-05-22T06:36:46.857Z,10.68
2023-05-22T06:39:16.208Z,12.00
2023-05-22T06:42:08.951Z,10.63
2023-05-22T06:44:54.806Z,10.68
2023-05-22T06:47:27.730Z,11.13
2023-05-22T06:49:55.345Z,12.10
2023-05-22T06:52:23.273Z,11.82
2023-05-22T06:54:50.865Z,11.25
2023-05-22T06:57:18.491Z,10.68
2023-05-22T06:59:46.780Z,10.90
2023-05-22T07:02:29.538Z,12.27
2023-05-22T07:05:23.129Z,10.88
2023-05-22T07:07:56.975Z,10.45
2023-05-22T07:10:27.534Z,12.07
2023-05-22T07:12:55.502Z,11.27
2023-05-22T07:15:23.125Z,10.88
2023-05-22T07:17:54.002Z,10.55
2023-05-22T07:20:22.666Z,10.88
2023-05-22T07:23:23.815Z,10.63
2023-05-22T07:25:52.647Z,11.57
2023-05-22T07:28:23.296Z,10.80
2023-05-22T07:31:05.649Z,10.90
2023-05-22T07:33:33.377Z,10.40
2023-05-22T07:36:01.051Z,9.88
2023-05-22T07:38:28.662Z,11.88
2023-05-22T07:41:00.503Z,10.82
2023-05-22T07:43:29.877Z,10.65
2023-05-22T07:45:59.237Z,11.30
2023-05-22T07:48:31.447Z,11.30
2023-05-22T07:51:00.072Z,9.88
2023-05-22T07:53:28.138Z,9.80
2023-05-22T07:55:58.786Z,9.48
2023-05-22T07:58:27.136Z,10.52
2023-05-22T08:00:55.896Z,10.10
2023-05-22T08:03:24.410Z,10.07
2023-05-22T08:05:52.144Z,10.82
2023-05-22T08:08:19.693Z,10.95
2023-05-22T08:11:02.901Z,10.23
2023-05-22T08:13:32.200Z,11.25
2023-05-22T08:16:01.133Z,9.88
2023-05-22T08:18:30.123Z,10.60
2023-05-22T08:20:58.109Z,11.93
2023-05-22T08:23:25.654Z,10.90
2023-05-22T08:25:53.245Z,10.05
2023-05-22T08:28:20.977Z,10.55
2023-05-22T08:30:48.604Z,10.50
2023-05-22T08:33:16.522Z,10.40
2023-05-22T08:35:44.155Z,8.77
2023-05-22T08:38:11.913Z,11.23
2023-05-22T08:40:40.778Z,10.18
2023-05-22T08:43:09.740Z,9.32
2023-05-22T08:45:37.558Z,9.55
2023-05-22T08:48:06.332Z,9.77
2023-05-22T08:50:40.769Z,10.93
2023-05-22T08:53:11.240Z,10.25
2023-05-22T08:55:39.400Z,10.88
2023-05-22T08:58:08.193Z,9.35
2023-05-22T09:00:35.883Z,10.40
2023-05-22T09:03:06.589Z,11.85
2023-05-22T09:05:34.359Z,10.23
2023-05-22T09:08:15.927Z,12.88
2023-05-22T09:10:47.859Z,10.68
2023-05-22T09:13:29.022Z,11.15
2023-05-22T09:16:08.377Z,10.43
2023-05-22T09:18:38.017Z,9.82
2023-05-22T09:21:17.730Z,10.15
2023-05-22T09:23:54.744Z,11.30
2023-05-22T09:26:26.552Z,11.50
2023-05-22T09:28:54.117Z,11.70
2023-05-22T09:31:21.806Z,10.77
2023-05-22T09:33:49.392Z,11.05
2023-05-22T09:36:17.225Z,10.80
2023-05-22T09:38:44.990Z,11.75
2023-05-22T09:41:12.656Z,12.10
2023-05-22T09:43:51.159Z,10.05
2023-05-22T09:46:18.765Z,9.73
2023-05-22T09:48:52.496Z,9.88
2023-05-22T09:51:26.449Z,10.05
2023-05-22T09:54:03.360Z,10.15
2023-05-22T09:56:39.736Z,9.45
2023-05-22T09:59:09.827Z,10.20
2023-05-22T10:01:39.874Z,11.02
2023-05-22T10:04:14.278Z,10.82
2023-05-22T10:06:47.255Z,10.20
2023-05-22T10:09:19.463Z,9.98
2023-05-22T10:11:49.949Z,10.90
2023-05-22T10:14:17.838Z,10.40
2023-05-22T10:16:45.708Z,10.65
2023-05-22T10:19:14.176Z,11.23
2023-05-22T10:21:42.019Z,9.30
2023-05-22T10:24:10.975Z,10.15
2023-05-22T10:26:39.077Z,10.10
2023-05-22T10:29:19.205Z,11.02
2023-05-22T10:32:15.645Z,10.30
2023-05-22T10:35:33.119Z,11.40
2023-05-22T10:38:17.966Z,9.80
2023-05-22T10:40:46.938Z,10.70
2023-05-22T10:43:14.820Z,9.95
2023-05-22T10:45:46.648Z,9.82
2023-05-22T10:48:14.551Z,10.45
2023-05-22T10:50:52.909Z,10.52
2023-05-22T10:53:25.260Z,10.18
2023-05-22T10:55:57.614Z,10.15
2023-05-22T10:58:37.206Z,9.98
2023-05-22T11:01:19.415Z,9.73
2023-05-22T11:04:12.471Z,9.52
2023-05-22T11:06:46.033Z,10.02
2023-05-22T11:09:17.688Z,9.77
2023-05-22T11:11:46.849Z,9.57
2023-05-22T11:14:20.204Z,9.05
2023-05-22T11:16:47.901Z,9.25
2023-05-22T11:19:23.392Z,10.57
2023-05-22T11:21:51.775Z,9.98
2023-05-22T11:24:19.462Z,10.18
2023-05-22T11:27:07.670Z,9.82
2023-05-22T11:29:36.647Z,10.27
2023-05-22T11:32:04.501Z,9.90
2023-05-22T11:34:32.269Z,9.95
2023-05-22T11:37:00.412Z,11.38
2023-05-22T11:39:28.252Z,9.73
2023-05-22T11:41:56.053Z,9.88
2023-05-22T11:44:23.701Z,9.18
2023-05-22T11:46:51.652Z,9.63
2023-05-22T11:49:23.773Z,10.13
2023-05-22T11:51:52.226Z,9.70
2023-05-22T11:54:20.154Z,9.35
2023-05-22T11:56:48.150Z,9.20
2023-05-22T11:59:16.307Z,8.93
2023-05-22T12:01:43.933Z,9.80
2023-05-22T12:04:11.597Z,8.88
2023-05-22T12:06:39.304Z,8.35
2023-05-22T12:09:07.254Z,9.43
2023-05-22T12:11:36.476Z,8.25
2023-05-22T12:14:04.763Z,9.32
2023-05-22T12:16:36.671Z,9.13
2023-05-22T12:19:12.369Z,8.80
2023-05-22T12:21:42.025Z,9.30
2023-05-22T12:24:10.615Z,8.77
2023-05-22T12:26:38.220Z,9.07
2023-05-22T12:29:05.908Z,8.75
2023-05-22T12:31:38.319Z,8.00
2023-05-22T12:34:08.207Z,8.95
2023-05-22T12:36:39.938Z,8.95
2023-05-22T12:39:09.400Z,9.15
2023-05-22T12:41:40.046Z,8.60
2023-05-22T12:44:07.671Z,9.52
2023-05-22T12:46:35.670Z,8.35
2023-05-22T12:49:03.398Z,8.48
2023-05-22T12:51:32.395Z,9.07
2023-05-22T12:54:01.605Z,10.23
2023-05-22T12:56:31.112Z,9.88
2023-05-22T12:58:59.445Z,11.10
2023-05-22T13:01:27.228Z,9.70
2023-05-22T13:03:54.761Z,10.55
2023-05-22T13:06:22.362Z,10.63
2023-05-22T13:08:51.010Z,10.25
2023-05-22T13:11:20.053Z,10.52
2023-05-22T13:13:47.585Z,10.27
2023-05-22T13:16:15.164Z,10.70
2023-05-22T13:18:42.766Z,9.50
2023-05-22T13:21:10.435Z,10.05
2023-05-22T13:23:37.995Z,9.80
2023-05-22T13:26:05.851Z,9.98
2023-05-22T13:28:33.438Z,9.65
2023-05-22T13:31:01.000Z,9.45
2023-05-22T13:33:28.529Z,10.00
2023-05-22T13:35:56.108Z,9.32
2023-05-22T13:38:23.650Z,10.20
2023-05-22T13:40:51.983Z,9.15
2023-05-22T13:43:19.625Z,8.88
2023-05-22T13:45:47.169Z,9.38
2023-05-22T13:48:14.723Z,9.90
2023-05-22T13:50:42.312Z,8.70
2023-05-22T13:53:09.891Z,9.48
2023-05-22T13:55:38.860Z,10.38
2023-05-22T13:58:06.631Z,10.30
2023-05-22T14:00:34.200Z,9.18
2023-05-22T14:03:01.883Z,10.15
2023-05-22T14:05:29.553Z,9.65
2023-05-22T14:07:57.080Z,10.55
2023-05-22T14:10:24.634Z,9.70
2023-05-22T14:12:52.274Z,9.38
2023-05-22T14:15:19.820Z,10.15
2023-05-22T14:17:47.397Z,9.75
2023-05-22T14:20:15.088Z,9.75
2023-05-22T14:22:55.859Z,9.30
2023-05-22T14:25:24.414Z,10.18
2023-05-22T14:27:51.989Z,9.45
2023-05-22T14:30:19.748Z,11.23
2023-05-22T14:32:47.494Z,8.95
2023-05-22T14:35:16.578Z,9.93
2023-05-22T14:37:44.300Z,10.50
2023-05-22T14:40:11.934Z,9.88
2023-05-22T14:42:39.484Z,9.07
2023-05-22T14:45:07.775Z,9.32
2023-05-22T14:47:35.445Z,9.35
2023-05-22T14:50:18.165Z,9.35
2023-05-22T14:52:47.322Z,9.77
2023-05-22T14:55:15.387Z,10.48
2023-05-22T14:57:42.954Z,9.50
2023-05-22T15:00:12.043Z,9.20
2023-05-22T15:02:40.791Z,8.25
2023-05-22T15:05:09.573Z,8.65
2023-05-22T15:10:09.435Z,8.52
2023-05-22T15:12:37.366Z,8.45
2023-05-22T15:15:05.526Z,8.70
2023-05-22T15:17:33.166Z,9.73
2023-05-22T15:20:00.845Z,8.35
2023-05-22T15:22:28.484Z,9.20
2023-05-22T15:25:15.296Z,7.72
2023-05-22T15:27:43.363Z,7.18
2023-05-22T15:30:12.003Z,6.43
2023-05-22T15:32:39.662Z,7.07
2023-05-22T15:35:07.825Z,8.27
2023-05-22T15:37:36.444Z,7.85
2023-05-22T15:40:05.912Z,7.50
2023-05-22T15:42:33.717Z,8.07
2023-05-22T15:45:01.349Z,8.25
2023-05-22T15:47:29.565Z,7.32
2023-05-22T15:49:57.170Z,8.15
2023-05-22T15:52:24.989Z,7.60
2023-05-22T15:54:53.192Z,7.32
2023-05-22T15:57:21.577Z,7.78
2023-05-22T15:59:50.655Z,6.90
2023-05-22T16:02:19.047Z,7.78
2023-05-22T16:04:47.383Z,7.40
2023-05-22T16:07:15.288Z,7.38
2023-05-22T16:09:43.374Z,7.10
2023-05-22T16:12:11.178Z,7.15
2023-05-22T16:14:40.053Z,7.63
2023-05-22T16:17:08.117Z,7.50
2023-05-22T16:19:35.926Z,6.25
2023-05-22T16:22:03.828Z,7.93
2023-05-22T16:24:31.376Z,6.85
2023-05-22T16:27:00.090Z,8.07
2023-05-22T16:29:27.765Z,6.80
2023-05-22T16:31:57.024Z,7.85
2023-05-22T16:34:24.780Z,7.38
2023-05-22T16:36:52.338Z,7.00
2023-05-22T16:39:19.893Z,6.72
2023-05-22T16:41:47.614Z,7.18
2023-05-22T16:44:15.457Z,8.73
2023-05-22T16:46:43.530Z,7.75
2023-05-22T16:49:11.216Z,6.88
2023-05-22T16:51:38.763Z,7.40
2023-05-22T16:54:06.376Z,7.20
2023-05-22T16:56:34.164Z,7.47
2023-05-22T16:59:02.038Z,6.32
2023-05-22T17:01:29.758Z,6.32
2023-05-22T17:03:57.724Z,7.60
2023-05-22T17:06:27.490Z,7.53
2023-05-22T17:08:55.042Z,6.35
2023-05-22T17:11:24.008Z,7.60
2023-05-22T17:13:51.957Z,7.93
2023-05-22T17:16:19.656Z,7.35
2023-05-22T17:18:47.317Z,7.20
2023-05-22T17:21:17.414Z,8.48
2023-05-22T17:23:45.016Z,8.02
2023-05-22T17:26:14.152Z,9.32
2023-05-22T17:28:41.760Z,8.43
2023-05-22T17:31:09.447Z,7.97
2023-05-22T17:33:37.005Z,6.13
2023-05-22T17:36:04.829Z,6.88
2023-05-22T17:38:32.453Z,6.57
2023-05-22T17:41:00.838Z,5.95
2023-05-22T17:43:29.187Z,5.95
2023-05-22T17:45:56.863Z,5.63
2023-05-22T17:48:26.975Z,7.85
2023-05-22T17:50:54.838Z,7.13
2023-05-22T17:53:22.510Z,7.70
2023-05-22T17:55:52.314Z,6.88
2023-05-22T17:58:21.013Z,8.00
2023-05-22T18:00:49.041Z,8.95
2023-05-22T18:03:21.459Z,8.30
2023-05-22T18:05:50.392Z,9.68
2023-05-22T18:08:18.996Z,9.38
2023-05-22T18:10:46.700Z,9.68
2023-05-22T18:13:14.439Z,9.45
2023-05-22T18:15:42.235Z,9.05
2023-05-22T18:18:12.788Z,9.85
2023-05-22T18:20:40.769Z,9.27
2023-05-22T18:23:08.596Z,9.43
2023-05-22T18:25:36.133Z,9.05
2023-05-22T18:28:03.748Z,9.50
2023-05-22T18:30:32.214Z,9.93
2023-05-22T18:32:59.762Z,9.93
2023-05-22T18:35:27.462Z,9.95
2023-05-22T18:37:55.104Z,10.38
2023-05-22T18:40:22.745Z,9.60
2023-05-22T18:42:50.266Z,10.48
2023-05-22T18:45:17.834Z,9.18
2023-05-22T18:47:45.405Z,9.77
2023-05-22T18:50:13.098Z,9.00
2023-05-22T18:52:40.649Z,9.30
2023-05-22T18:55:08.744Z,9.52
2023-05-22T18:57:36.318Z,9.55
2023-05-22T19:00:04.542Z,9.88
2023-05-22T19:02:32.209Z,8.52
2023-05-22T19:04:59.940Z,9.15
2023-05-22T19:07:27.614Z,8.98
2023-05-22T19:09:55.455Z,8.70
2023-05-22T19:12:24.642Z,8.27
2023-05-22T19:14:52.494Z,9.15
2023-05-22T19:17:20.029Z,8.98
2023-05-22T19:19:47.595Z,9.05
2023-05-22T19:22:17.827Z,9.35
2023-05-22T19:24:45.739Z,8.95
2023-05-22T19:27:13.332Z,8.27
2023-05-22T19:29:41.082Z,9.27
2023-05-22T19:32:08.623Z,9.50
2023-05-22T19:34:36.341Z,9.13
2023-05-22T19:37:04.073Z,9.25
2023-05-22T19:39:31.662Z,9.38
2023-05-22T19:41:59.242Z,9.07
2023-05-22T19:44:26.831Z,9.13
2023-05-22T19:46:54.517Z,7.88
2023-05-22T19:49:22.088Z,8.10
2023-05-22T19:51:49.608Z,8.65
2023-05-22T19:54:17.240Z,8.45
2023-05-22T19:56:45.916Z,7.72
2023-05-22T19:59:13.471Z,7.72
2023-05-22T20:01:41.099Z,7.47
2023-05-22T20:04:08.906Z,7.43
2023-05-22T20:06:36.576Z,8.07
2023-05-22T20:09:05.759Z,7.97
2023-05-22T20:11:33.356Z,8.00
2023-05-22T20:14:02.464Z,8.35
2023-05-22T20:16:31.642Z,7.53
2023-05-22T20:18:59.617Z,8.10
2023-05-22T20:21:27.248Z,8.05
2023-05-22T20:23:55.576Z,7.90
2023-05-22T20:26:23.256Z,6.68
2023-05-22T20:28:50.871Z,9.00
2023-05-22T20:31:18.483Z,7.95
2023-05-22T20:33:46.069Z,8.25
2023-05-22T20:36:17.860Z,8.25
2023-05-22T20:38:46.050Z,7.88
2023-05-22T20:41:13.634Z,9.15
2023-05-22T20:43:43.188Z,8.05
2023-05-22T20:46:11.139Z,8.05
2023-05-22T20:48:38.906Z,8.23
2023-05-22T20:51:06.559Z,8.57
2023-05-22T20:53:34.159Z,9.02
2023-05-22T20:56:01.814Z,8.82
2023-05-22T20:58:29.488Z,8.25
2023-05-22T21:00:57.585Z,8.35
2023-05-22T21:03:26.057Z,9.25
2023-05-22T21:05:53.779Z,9.02
2023-05-22T21:08:21.443Z,9.05
2023-05-22T21:10:49.003Z,9.32
2023-05-22T21:13:16.796Z,8.68
2023-05-22T21:15:44.472Z,9.10
2023-05-22T21:18:12.176Z,8.98
2023-05-22T21:20:40.083Z,9.25
2023-05-22T21:23:07.797Z,10.27
2023-05-22T21:25:36.391Z,9.75
2023-05-22T21:28:04.135Z,8.25
2023-05-22T21:30:31.709Z,8.93
2023-05-22T21:32:59.410Z,9.15
2023-05-22T21:35:27.030Z,8.98
2023-05-22T21:37:54.646Z,9.00
2023-05-22T21:40:22.379Z,8.35
2023-05-22T21:42:49.913Z,8.45
2023-05-22T21:45:17.535Z,7.22
2023-05-22T21:47:45.198Z,8.55
2023-05-22T21:50:12.880Z,7.57
2023-05-22T21:52:40.416Z,7.78
2023-05-22T21:55:08.600Z,7.25
2023-05-22T21:57:36.686Z,8.90
2023-05-22T22:00:05.528Z,6.88
2023-05-22T22:02:33.103Z,7.75
2023-05-22T22:05:00.726Z,7.18
2023-05-22T22:07:28.278Z,7.90
2023-05-22T22:09:55.870Z,7.50
2023-05-22T22:12:23.491Z,7.43
2023-05-22T22:14:51.337Z,7.43
2023-05-22T22:17:23.680Z,7.57
2023-05-22T22:19:53.458Z,7.77
2023-05-22T22:22:22.662Z,8.07
2023-05-22T22:24:50.713Z,8.48
2023-05-22T22:27:19.617Z,9.05
2023-05-22T22:29:47.348Z,8.60
2023-05-22T22:32:15.032Z,9.48
2023-05-22T22:34:45.172Z,10.52
2023-05-22T22:37:13.931Z,11.35
2023-05-22T22:39:41.527Z,11.23
2023-05-22T22:42:09.084Z,12.45
2023-05-22T22:44:36.604Z,11.55
2023-05-22T22:47:04.605Z,11.80
2023-05-22T22:49:32.858Z,12.80
2023-05-22T22:52:00.739Z,12.52
2023-05-22T22:54:28.504Z,12.15
2023-05-22T22:56:56.259Z,12.20
2023-05-22T22:59:23.828Z,12.80
2023-05-22T23:01:51.552Z,13.10
2023-05-22T23:04:19.269Z,13.30
2023-05-22T23:06:46.898Z,12.50
2023-05-22T23:09:14.801Z,11.80
2023-05-22T23:11:42.367Z,14.35
2023-05-22T23:14:10.298Z,13.98
2023-05-22T23:16:42.057Z,16.27
2023-05-22T23:19:10.937Z,16.63
2023-05-22T23:21:38.584Z,16.58
2023-05-22T23:24:06.862Z,17.25
2023-05-22T23:26:34.592Z,20.10
2023-05-22T23:29:02.536Z,19.27
2023-05-22T23:31:31.179Z,19.52
2023-05-22T23:33:59.110Z,17.55
2023-05-22T23:36:26.643Z,20.85
2023-05-22T23:38:54.344Z,20.98
2023-05-22T23:41:21.999Z,23.02
2023-05-22T23:43:50.268Z,26.00
2023-05-22T23:46:20.983Z,23.58
2023-05-22T23:48:48.606Z,23.13
2023-05-22T23:51:16.791Z,21.98
2023-05-22T23:53:44.637Z,24.38
2023-05-22T23:56:12.202Z,22.60
2023-05-22T23:58:40.040Z,24.92
